createdAt,value
2022-08-21T00:00:20.861Z,65.24
2022-08-21T00:03:08.315Z,65.67
2022-08-21T00:05:54.409Z,65.45
2022-08-21T00:08:40.330Z,65.25
2022-08-21T00:11:28.008Z,65.51
2022-08-21T00:14:14.691Z,65.96
2022-08-21T00:17:00.773Z,65.83
2022-08-21T00:19:46.239Z,65.93
2022-08-21T00:22:31.491Z,66.02
2022-08-21T00:25:18.017Z,66.12
2022-08-21T00:28:07.478Z,66.02
2022-08-21T00:30:52.712Z,66.23
2022-08-21T00:33:38.070Z,66.37
2022-08-21T00:36:23.349Z,66.26
2022-08-21T00:39:09.479Z,66.56
2022-08-21T00:41:54.953Z,66.36
2022-08-21T00:44:40.373Z,66.28
2022-08-21T00:47:26.147Z,66.07
2022-08-21T00:50:15.042Z,66.32
2022-08-21T00:53:08.780Z,66.21
2022-08-21T00:55:56.622Z,66.30
2022-08-21T00:58:43.839Z,66.51
2022-08-21T01:01:29.230Z,66.61
2022-08-21T01:04:14.432Z,66.26
2022-08-21T01:06:59.879Z,66.67
2022-08-21T01:09:47.662Z,66.59
2022-08-21T01:12:34.431Z,66.28
2022-08-21T01:15:22.707Z,66.36
2022-08-21T01:18:11.962Z,66.78
2022-08-21T01:21:16.534Z,66.39
2022-08-21T01:24:01.738Z,66.70
2022-08-21T01:26:47.342Z,66.18
2022-08-21T01:29:48.685Z,66.31
2022-08-21T01:32:34.609Z,66.71
2022-08-21T01:35:21.323Z,66.67
2022-08-21T01:38:06.721Z,66.40
2022-08-21T01:40:51.987Z,66.51
2022-08-21T01:43:39.624Z,66.58
2022-08-21T01:46:25.712Z,66.66
2022-08-21T01:49:11.405Z,66.84
2022-08-21T01:51:56.675Z,66.49
2022-08-21T01:54:42.867Z,66.49
2022-08-21T01:57:28.405Z,66.78
2022-08-21T02:00:16.593Z,66.66
2022-08-21T02:03:01.912Z,66.39
2022-08-21T02:05:47.211Z,66.51
2022-08-21T02:08:32.854Z,66.70
2022-08-21T02:11:18.718Z,66.52
2022-08-21T02:14:04.548Z,66.62
2022-08-21T02:16:50.077Z,65.97
2022-08-21T02:19:39.548Z,66.43
2022-08-21T02:22:26.012Z,66.43
2022-08-21T02:25:11.642Z,66.34
2022-08-21T02:27:57.599Z,66.27
2022-08-21T02:30:46.282Z,66.34
2022-08-21T02:33:31.734Z,65.88
2022-08-21T02:36:16.977Z,66.14
2022-08-21T02:39:02.324Z,65.71
2022-08-21T02:41:47.694Z,66.13
2022-08-21T02:44:34.584Z,66.12
2022-08-21T02:47:20.242Z,65.92
2022-08-21T02:50:06.734Z,65.84
2022-08-21T02:52:55.115Z,66.04
2022-08-21T02:55:40.809Z,65.81
2022-08-21T02:58:32.240Z,65.86
2022-08-21T03:01:18.359Z,65.58
2022-08-21T03:04:03.663Z,65.50
2022-08-21T03:06:49.387Z,65.90
2022-08-21T03:09:34.575Z,65.91
2022-08-21T03:12:19.817Z,65.93
2022-08-21T03:15:10.466Z,65.73
2022-08-21T03:17:56.339Z,65.58
2022-08-21T03:20:43.135Z,65.65
2022-08-21T03:23:32.596Z,65.63
2022-08-21T03:26:18.915Z,65.69
2022-08-21T03:29:06.733Z,65.57
2022-08-21T03:31:54.522Z,65.50
2022-08-21T03:34:40.224Z,65.60
2022-08-21T03:37:25.503Z,65.74
2022-08-21T03:40:12.584Z,65.77
2022-08-21T03:42:57.796Z,65.71
2022-08-21T03:45:42.947Z,65.72
2022-08-21T03:48:28.839Z,65.57
2022-08-21T03:51:14.122Z,65.46
2022-08-21T03:53:59.376Z,65.68
2022-08-21T03:56:44.788Z,65.59
2022-08-21T03:59:30.185Z,65.92
2022-08-21T04:02:19.567Z,65.71
2022-08-21T04:05:05.893Z,65.69
2022-08-21T04:07:51.006Z,65.70
2022-08-21T04:10:39.011Z,65.66
2022-08-21T04:13:24.555Z,65.87
2022-08-21T04:16:09.958Z,66.32
2022-08-21T04:18:55.275Z,66.05
2022-08-21T04:21:41.359Z,65.79
2022-08-21T04:24:29.996Z,65.97
2022-08-21T04:27:15.430Z,66.11
2022-08-21T04:30:01.938Z,66.29
2022-08-21T04:32:50.350Z,66.28
2022-08-21T04:35:36.620Z,66.24
2022-08-21T04:38:22.620Z,66.13
2022-08-21T04:41:08.216Z,66.33
2022-08-21T04:43:53.639Z,66.53
2022-08-21T04:46:38.928Z,65.99
2022-08-21T04:49:24.247Z,65.92
2022-08-21T04:52:09.893Z,66.30
2022-08-21T04:54:55.394Z,66.28
2022-08-21T04:57:48.937Z,66.32
2022-08-21T05:00:34.871Z,66.36
2022-08-21T05:03:20.125Z,66.17
2022-08-21T05:06:09.612Z,66.10
2022-08-21T05:09:02.107Z,66.42
2022-08-21T05:11:48.105Z,66.47
2022-08-21T05:14:34.037Z,66.46
2022-08-21T05:17:19.623Z,66.37
2022-08-21T05:20:05.687Z,66.46
2022-08-21T05:22:51.254Z,66.60
2022-08-21T05:25:36.891Z,66.46
2022-08-21T05:28:22.384Z,66.53
2022-08-21T05:31:07.671Z,66.55
2022-08-21T05:33:53.188Z,66.45
2022-08-21T05:36:41.480Z,66.92
2022-08-21T05:39:27.063Z,67.03
2022-08-21T05:42:32.628Z,67.40
2022-08-21T05:45:18.374Z,67.59
2022-08-21T05:48:25.199Z,67.69
2022-08-21T05:51:15.324Z,68.09
2022-08-21T05:54:00.907Z,67.74
2022-08-21T05:56:46.257Z,68.09
2022-08-21T05:59:31.626Z,67.93
2022-08-21T06:02:19.350Z,67.62
2022-08-21T06:05:04.780Z,67.76
2022-08-21T06:07:50.468Z,67.82
2022-08-21T06:10:35.844Z,68.21
2022-08-21T06:13:21.930Z,67.39
2022-08-21T06:16:11.161Z,67.17
2022-08-21T06:19:03.109Z,67.01
2022-08-21T06:21:49.097Z,67.20
2022-08-21T06:24:34.872Z,67.24
2022-08-21T06:27:24.675Z,67.56
2022-08-21T06:30:12.453Z,67.06
2022-08-21T06:32:58.635Z,67.07
2022-08-21T06:35:44.266Z,67.09
2022-08-21T06:38:29.671Z,66.71
2022-08-21T06:41:16.948Z,66.62
2022-08-21T06:44:02.905Z,67.07
2022-08-21T06:46:48.603Z,67.28
2022-08-21T06:49:34.098Z,67.03
2022-08-21T06:52:19.731Z,67.01
2022-08-21T06:55:07.712Z,66.77
2022-08-21T06:57:53.564Z,67.00
2022-08-21T07:00:46.015Z,66.92
2022-08-21T07:03:34.938Z,67.11
2022-08-21T07:06:20.889Z,66.63
2022-08-21T07:09:06.130Z,66.54
2022-08-21T07:11:54.429Z,66.60
2022-08-21T07:14:40.207Z,67.03
2022-08-21T07:17:25.430Z,66.87
2022-08-21T07:20:10.814Z,66.75
2022-08-21T07:23:02.729Z,66.92
2022-08-21T07:25:48.026Z,66.35
2022-08-21T07:28:34.050Z,66.66
2022-08-21T07:31:22.361Z,66.88
2022-08-21T07:34:09.344Z,67.13
2022-08-21T07:36:55.256Z,67.40
2022-08-21T07:39:40.890Z,66.80
2022-08-21T07:42:26.513Z,67.14
2022-08-21T07:45:13.362Z,67.58
2022-08-21T07:47:58.785Z,67.75
2022-08-21T07:50:44.183Z,66.96
2022-08-21T07:53:29.851Z,68.00
2022-08-21T07:56:15.166Z,67.24
2022-08-21T07:59:00.689Z,66.47
2022-08-21T08:01:46.237Z,68.04
2022-08-21T08:04:31.917Z,67.22
2022-08-21T08:07:17.695Z,67.27
2022-08-21T08:10:05.357Z,66.85
2022-08-21T08:12:52.303Z,66.48
2022-08-21T08:15:38.083Z,66.44
2022-08-21T08:18:23.412Z,66.51
2022-08-21T08:21:10.196Z,66.46
2022-08-21T08:23:56.207Z,66.69
2022-08-21T08:26:41.794Z,66.68
2022-08-21T08:29:27.413Z,66.19
2022-08-21T08:32:15.469Z,66.33
2022-08-21T08:35:00.814Z,66.17
2022-08-21T08:37:47.361Z,66.15
2022-08-21T08:40:52.971Z,66.38
2022-08-21T08:43:38.311Z,66.17
2022-08-21T08:46:47.910Z,65.97
2022-08-21T08:49:41.298Z,66.20
2022-08-21T08:52:43.620Z,66.01
2022-08-21T08:55:41.167Z,65.97
2022-08-21T08:58:31.325Z,65.89
2022-08-21T09:01:19.860Z,66.57
2022-08-21T09:04:05.660Z,66.48
2022-08-21T09:06:58.750Z,66.63
2022-08-21T09:10:23.987Z,66.27
2022-08-21T09:13:20.226Z,66.61
2022-08-21T09:16:10.197Z,66.07
2022-08-21T09:19:09.341Z,66.46
2022-08-21T09:22:11.083Z,66.42
2022-08-21T09:25:20.973Z,66.19
2022-08-21T09:28:12.518Z,66.05
2022-08-21T09:31:03.641Z,65.70
2022-08-21T09:33:49.076Z,65.88
2022-08-21T09:36:46.545Z,65.56
2022-08-21T09:39:40.289Z,65.54
2022-08-21T09:42:36.002Z,65.31
2022-08-21T09:45:21.476Z,65.23
2022-08-21T09:48:26.961Z,64.94
2022-08-21T09:51:16.959Z,64.52
2022-08-21T09:54:08.903Z,64.28
2022-08-21T09:57:21.085Z,64.17
2022-08-21T10:00:31.936Z,64.17
2022-08-21T10:03:21.006Z,64.28
2022-08-21T10:06:11.307Z,64.18
2022-08-21T10:09:21.618Z,64.34
2022-08-21T10:12:29.941Z,63.56
2022-08-21T10:15:47.882Z,62.49
2022-08-21T10:18:51.116Z,62.22
2022-08-21T10:22:07.298Z,61.44
2022-08-21T10:25:00.183Z,61.12
2022-08-21T10:28:00.952Z,60.61
2022-08-21T10:31:08.604Z,60.24
2022-08-21T10:34:09.611Z,60.14
2022-08-21T10:37:15.079Z,60.45
2022-08-21T10:40:06.867Z,60.55
2022-08-21T10:43:22.030Z,59.97
2022-08-21T10:46:43.511Z,59.99
2022-08-21T10:49:54.362Z,60.46
2022-08-21T10:52:51.664Z,60.24
2022-08-21T10:55:57.583Z,60.68
2022-08-21T10:58:57.562Z,60.57
2022-08-21T11:02:05.082Z,59.97
2022-08-21T11:05:06.958Z,60.19
2022-08-21T11:08:04.287Z,61.04
2022-08-21T11:11:08.570Z,61.15
2022-08-21T11:13:59.906Z,60.39
2022-08-21T11:16:55.140Z,60.90
2022-08-21T11:19:49.005Z,60.71
2022-08-21T11:23:03.810Z,60.57
2022-08-21T11:25:59.286Z,59.85
2022-08-21T11:29:01.473Z,58.44
2022-08-21T11:32:01.727Z,59.29
2022-08-21T11:35:03.978Z,59.25
2022-08-21T11:37:55.328Z,59.21
2022-08-21T11:41:14.191Z,58.20
2022-08-21T11:44:08.614Z,57.73
2022-08-21T11:47:12.767Z,57.85
2022-08-21T11:50:29.699Z,58.22
2022-08-21T11:53:46.868Z,58.53
2022-08-21T11:56:40.053Z,58.34
2022-08-21T11:59:40.746Z,58.19
2022-08-21T12:02:32.994Z,58.29
2022-08-21T12:05:34.121Z,57.68
2022-08-21T12:08:31.534Z,57.40
2022-08-21T12:11:16.698Z,57.22
2022-08-21T12:14:08.397Z,57.35
2022-08-21T12:17:06.863Z,57.89
2022-08-21T12:20:15.571Z,57.81
2022-08-21T12:23:13.367Z,57.94
2022-08-21T12:26:33.145Z,58.53
2022-08-21T12:29:33.617Z,58.63
2022-08-21T12:32:18.762Z,58.50
2022-08-21T12:35:18.591Z,58.09
2022-08-21T12:38:19.051Z,58.04
2022-08-21T12:41:11.834Z,57.08
2022-08-21T12:44:40.547Z,57.47
2022-08-21T12:47:37.713Z,56.33
2022-08-21T12:50:45.353Z,56.38
2022-08-21T12:53:58.409Z,56.80
2022-08-21T12:56:43.580Z,56.81
2022-08-21T12:59:29.444Z,56.60
2022-08-21T13:02:21.373Z,57.26
2022-08-21T13:05:10.692Z,56.34
2022-08-21T13:07:56.782Z,56.36
2022-08-21T13:10:42.553Z,55.84
2022-08-21T13:13:29.350Z,55.90
2022-08-21T13:16:21.760Z,56.24
2022-08-21T13:19:09.564Z,55.70
2022-08-21T13:21:55.106Z,55.66
2022-08-21T13:24:43.387Z,55.86
2022-08-21T13:27:31.391Z,55.49
2022-08-21T13:30:22.208Z,55.41
2022-08-21T13:33:12.883Z,55.24
2022-08-21T13:36:01.441Z,55.25
2022-08-21T13:38:47.342Z,55.23
2022-08-21T13:41:37.730Z,55.60
2022-08-21T13:44:33.917Z,55.88
2022-08-21T13:47:19.602Z,55.21
2022-08-21T13:50:06.490Z,55.17
2022-08-21T13:53:01.840Z,55.19
2022-08-21T13:55:47.128Z,56.12
2022-08-21T13:58:52.971Z,56.45
2022-08-21T14:01:50.058Z,56.41
2022-08-21T14:04:59.976Z,55.95
2022-08-21T14:07:45.650Z,55.75
2022-08-21T14:10:32.198Z,55.87
2022-08-21T14:13:45.697Z,56.17
2022-08-21T14:16:44.651Z,56.33
2022-08-21T14:19:42.672Z,56.64
2022-08-21T14:22:49.727Z,56.09
2022-08-21T14:25:44.016Z,56.47
2022-08-21T14:28:34.713Z,56.70
2022-08-21T14:31:22.184Z,56.44
2022-08-21T14:34:19.360Z,55.97
2022-08-21T14:37:05.487Z,56.49
2022-08-21T14:39:51.257Z,56.44
2022-08-21T14:42:36.801Z,56.21
2022-08-21T14:45:31.663Z,56.74
2022-08-21T14:48:17.514Z,56.62
2022-08-21T14:51:03.026Z,56.07
2022-08-21T14:53:49.054Z,56.03
2022-08-21T14:56:35.923Z,55.44
2022-08-21T14:59:21.939Z,55.74
2022-08-21T15:02:09.080Z,55.71
2022-08-21T15:04:54.418Z,55.49
2022-08-21T15:07:39.718Z,55.78
2022-08-21T15:10:25.079Z,55.74
2022-08-21T15:13:10.574Z,56.18
2022-08-21T15:15:57.057Z,56.29
2022-08-21T15:18:42.933Z,56.46
2022-08-21T15:21:28.041Z,56.80
2022-08-21T15:24:13.304Z,57.06
2022-08-21T15:27:01.170Z,56.94
2022-08-21T15:29:46.766Z,56.89
2022-08-21T15:32:32.309Z,56.97
2022-08-21T15:35:18.107Z,57.26
2022-08-21T15:38:03.928Z,57.81
2022-08-21T15:40:51.929Z,57.30
2022-08-21T15:43:49.672Z,57.48
2022-08-21T15:46:34.898Z,57.65
2022-08-21T15:49:20.146Z,57.51
2022-08-21T15:52:05.598Z,58.00
2022-08-21T15:54:52.329Z,59.12
2022-08-21T15:57:40.432Z,58.68
2022-08-21T16:00:26.654Z,58.29
2022-08-21T16:03:16.803Z,58.55
2022-08-21T16:06:02.316Z,58.29
2022-08-21T16:08:47.657Z,58.05
2022-08-21T16:11:33.452Z,57.78
2022-08-21T16:14:19.118Z,58.02
2022-08-21T16:17:08.471Z,58.23
2022-08-21T16:19:54.072Z,58.06
2022-08-21T16:22:41.264Z,58.62
2022-08-21T16:25:30.474Z,58.04
2022-08-21T16:28:21.061Z,58.09
2022-08-21T16:31:06.392Z,58.34
2022-08-21T16:33:57.968Z,57.91
2022-08-21T16:36:43.543Z,58.13
2022-08-21T16:39:29.084Z,58.13
2022-08-21T16:42:20.390Z,58.30
2022-08-21T16:45:11.132Z,58.52
2022-08-21T16:47:56.297Z,58.24
2022-08-21T16:50:41.614Z,58.38
2022-08-21T16:53:26.961Z,58.37
2022-08-21T16:56:14.871Z,58.34
2022-08-21T16:59:00.391Z,58.59
2022-08-21T17:01:46.256Z,58.03
2022-08-21T17:04:32.054Z,58.23
2022-08-21T17:07:17.143Z,58.32
2022-08-21T17:10:02.330Z,58.26
2022-08-21T17:12:55.926Z,57.90
2022-08-21T17:15:42.201Z,58.24
2022-08-21T17:18:28.033Z,58.55
2022-08-21T17:21:18.648Z,58.75
2022-08-21T17:24:04.722Z,58.98
2022-08-21T17:26:50.426Z,58.91
2022-08-21T17:29:38.625Z,58.89
2022-08-21T17:32:25.390Z,59.11
2022-08-21T17:35:11.998Z,59.10
2022-08-21T17:37:57.967Z,58.90
2022-08-21T17:40:43.477Z,58.98
2022-08-21T17:43:28.912Z,59.08
2022-08-21T17:46:19.153Z,59.10
2022-08-21T17:49:06.699Z,59.07
2022-08-21T17:51:52.810Z,59.18
2022-08-21T17:54:38.176Z,58.59
2022-08-21T17:57:24.362Z,58.89
2022-08-21T18:00:12.680Z,59.07
2022-08-21T18:03:01.867Z,59.06
2022-08-21T18:05:49.365Z,58.85
2022-08-21T18:08:35.283Z,59.02
2022-08-21T18:11:24.254Z,59.05
2022-08-21T18:14:10.904Z,58.89
2022-08-21T18:16:56.458Z,58.62
2022-08-21T18:19:48.859Z,58.77
2022-08-21T18:22:34.951Z,58.73
2022-08-21T18:25:20.850Z,58.42
2022-08-21T18:28:07.531Z,58.51
2022-08-21T18:30:54.594Z,58.67
2022-08-21T18:33:57.559Z,58.79
2022-08-21T18:36:44.150Z,58.52
2022-08-21T18:39:38.250Z,58.38
2022-08-21T18:42:28.561Z,58.59
2022-08-21T18:45:18.843Z,59.09
2022-08-21T18:48:09.447Z,59.05
2022-08-21T18:50:55.310Z,58.92
2022-08-21T18:53:40.939Z,58.98
2022-08-21T18:56:27.376Z,58.82
2022-08-21T18:59:14.163Z,59.00
2022-08-21T19:02:00.196Z,58.85
2022-08-21T19:04:48.021Z,58.72
2022-08-21T19:07:34.210Z,58.65
2022-08-21T19:13:28.417Z,58.66
2022-08-21T19:16:14.837Z,58.42
2022-08-21T19:19:02.051Z,58.23
2022-08-21T19:24:53.658Z,58.51
2022-08-21T19:27:40.088Z,58.65
2022-08-21T19:30:28.275Z,58.73
2022-08-21T19:33:23.221Z,58.65
2022-08-21T19:36:10.720Z,58.46
2022-08-21T19:38:56.879Z,58.24
2022-08-21T19:41:46.104Z,58.10
2022-08-21T19:44:37.969Z,58.08
2022-08-21T19:47:29.448Z,58.14
2022-08-21T19:50:18.078Z,58.18
2022-08-21T19:53:11.999Z,58.01
2022-08-21T19:55:59.061Z,58.01
2022-08-21T20:01:54.496Z,57.97
2022-08-21T20:07:46.407Z,57.93
2022-08-21T20:10:31.984Z,57.66
2022-08-21T20:13:22.166Z,57.19
2022-08-21T20:16:10.021Z,57.43
2022-08-21T20:18:55.962Z,57.22
2022-08-21T20:21:43.610Z,57.31
2022-08-21T20:24:30.392Z,57.33
2022-08-21T20:27:23.141Z,57.47
2022-08-21T20:30:09.784Z,57.10
2022-08-21T20:32:55.344Z,57.02
2022-08-21T20:35:41.347Z,56.94
2022-08-21T20:38:26.684Z,56.88
2022-08-21T20:41:21.414Z,56.95
2022-08-21T20:44:16.965Z,56.65
2022-08-21T20:47:09.013Z,57.02
2022-08-21T20:50:00.744Z,56.89
2022-08-21T20:52:52.355Z,56.69
2022-08-21T20:55:41.777Z,56.59
2022-08-21T20:58:42.171Z,56.76
2022-08-21T21:01:31.815Z,56.54
2022-08-21T21:04:26.217Z,56.62
2022-08-21T21:07:18.310Z,56.40
2022-08-21T21:10:11.159Z,56.41
2022-08-21T21:13:05.495Z,56.32
2022-08-21T21:15:56.352Z,56.42
2022-08-21T21:19:06.180Z,56.15
2022-08-21T21:22:03.099Z,56.43
2022-08-21T21:25:00.964Z,56.30
2022-08-21T21:27:54.147Z,56.17
2022-08-21T21:30:46.725Z,56.13
2022-08-21T21:33:32.382Z,56.26
2022-08-21T21:37:06.833Z,56.00
2022-08-21T21:40:35.186Z,56.08
2022-08-21T21:43:32.772Z,55.90
2022-08-21T21:46:33.577Z,55.79
2022-08-21T21:49:57.239Z,55.93
2022-08-21T21:52:55.387Z,55.91
2022-08-21T21:56:11.266Z,55.55
2022-08-21T21:59:06.351Z,55.57
2022-08-21T22:02:08.703Z,55.61
2022-08-21T22:05:22.131Z,55.53
2022-08-21T22:08:30.154Z,55.30
2022-08-21T22:11:29.508Z,55.66
2022-08-21T22:14:22.744Z,55.44
2022-08-21T22:17:27.959Z,55.40
2022-08-21T22:20:26.077Z,55.26
2022-08-21T22:23:19.552Z,55.40
2022-08-21T22:26:14.496Z,55.19
2022-08-21T22:29:05.555Z,55.30
2022-08-21T22:32:04.928Z,55.08
2022-08-21T22:35:15.505Z,55.30
2022-08-21T22:38:01.521Z,55.05
2022-08-21T22:40:47.142Z,55.18
2022-08-21T22:43:32.848Z,54.96
2022-08-21T22:46:27.320Z,54.99
2022-08-21T22:49:26.427Z,55.11
2022-08-21T22:52:29.346Z,54.93
2022-08-21T22:55:27.153Z,54.94
2022-08-21T22:58:25.122Z,54.76
2022-08-21T23:04:48.819Z,54.85
2022-08-21T23:07:44.400Z,54.81
2022-08-21T23:10:40.819Z,54.59
2022-08-21T23:13:30.303Z,54.85
2022-08-21T23:16:47.795Z,54.69
2022-08-21T23:20:12.830Z,54.43
2022-08-21T23:26:32.423Z,54.53
2022-08-21T23:29:26.184Z,54.48
2022-08-21T23:32:35.745Z,54.49
2022-08-21T23:36:10.304Z,54.46
2022-08-21T23:39:20.443Z,54.39
2022-08-21T23:42:12.109Z,54.31
2022-08-21T23:45:00.547Z,54.36
2022-08-21T23:48:11.186Z,54.35
2022-08-21T23:51:16.557Z,54.13
2022-08-21T23:54:22.591Z,54.23
2022-08-21T23:57:31.595Z,53.91
